Bay State Village, Massachusetts
Current Conditions -  °F | °C
As of 5:24 AM on Friday 24 Oct 2014 (Local Time) from KCEF Reporting Station
Drizzle Drizzle  
Wind Chill: 45°   Ceiling: 3800
Heat Index: 48°   Visibility: 10mi
Dew Point: 45°   Wind: 7mph
Humidity: 87%   Direction: 340°NNW
Pressure: 29.73"   Gusts: NA
Location:  42.3249°N, 72.6582°W
Report Text: KCEF 240924Z AUTO 34006KT 10SM -DZ FEW025 OVC038 09/07 A2973 RMK AO2
Loading
Personal Weather Stations






























Interactive Weather Map New forecast layout! Learn more

10-Day Weather Forecast

Advertisements
Track Severe Weather on mobile